Overview Statistics Trail Chart Weather Telemetry Raw packets
 

This is the latest recevied weather packets stored in our database for station/object KJ6HT. If no packets are shown the sender has not sent any weather packets the latest 10 day(s).

<< 20 21 22 23 24 25 26 >>
Time Temp. Humidity Pressure Rain* Wind** Luminosity Snow
1788156070 23.33° C 76% 1010.3 hPa 0 mm - - -
1788155109 23.33° C 75% 1010.1 hPa 0 mm - - -
1788154279 23.33° C 74% 1010.2 hPa 0 mm - - -
1788153341 24.44° C 70% 1010.3 hPa 0 mm - - -
1788152475 23.89° C 73% 1010.2 hPa 0 mm - - -
1788151531 24.44° C 70% 1010.2 hPa 0 mm - - -
1788150689 24.44° C 69% 1009.9 hPa 0 mm - - -
1788149749 24.44° C 69% 1009.6 hPa 0 mm - - -
1788148832 25° C 69% 1009.4 hPa 0 mm - - -
1788147973 25.56° C 68% 1009.1 hPa 0 mm - - -
1788147069 25.56° C 66% 1008.8 hPa 0 mm - - -
1788146101 26.11° C 65% 1008.5 hPa 0 mm - - -
1788145267 26.67° C 65% 1008.1 hPa 0 mm - - -
1788144336 26.67° C 64% 1008 hPa 0 mm - - -
1788143403 27.22° C 61% 1007.9 hPa 0 mm - - -
1788142551 28.33° C 58% 1007.7 hPa 0 mm - - -
1788141614 28.89° C 55% 1007.6 hPa 0 mm - - -
1788140783 29.44° C 53% 1007.7 hPa 0 mm - - -
1788139809 30° C 51% 1007.7 hPa 0 mm - - -
1788138963 30.56° C 50% 1007.6 hPa 0 mm - - -
1788138058 31.67° C 47% 1007.5 hPa 0 mm - - -
1788137115 32.22° C 46% 1007.7 hPa 0 mm - - -
1788136278 32.22° C 46% 1007.5 hPa 0 mm - - -
1788135331 32.78° C 45% 1007.5 hPa 0 mm - - -
1788134417 32.78° C 46% 1007.4 hPa 0 mm - - -

* Rain latest hour (hover to see other rain measurements)
** Current wind speed in m/s (hover to see current wind gust speed)